createdAt,value
2022-08-10T00:00:04.768Z,1014.73
2022-08-10T00:01:04.714Z,1014.76
2022-08-10T00:02:05.278Z,1014.80
2022-08-10T00:03:05.147Z,1014.76
2022-08-10T00:04:05.091Z,1014.75
2022-08-10T00:05:05.048Z,1014.76
2022-08-10T00:06:05.240Z,1014.78
2022-08-10T00:07:06.110Z,1014.78
2022-08-10T00:08:05.717Z,1014.76
2022-08-10T00:09:05.573Z,1014.79
2022-08-10T00:10:05.441Z,1014.87
2022-08-10T00:11:05.306Z,1014.78
2022-08-10T00:11:15.347Z,1014.77
2022-08-10T00:12:02.997Z,1014.83
2022-08-10T00:13:02.804Z,1014.79
2022-08-10T00:14:02.703Z,1014.84
2022-08-10T00:15:02.666Z,1014.71
2022-08-10T00:16:02.440Z,1014.75
2022-08-10T00:17:02.996Z,1014.83
2022-08-10T00:18:03.589Z,1014.77
2022-08-10T00:19:03.058Z,1014.82
2022-08-10T00:20:08.762Z,1014.85
2022-08-10T00:21:03.638Z,1014.81
2022-08-10T00:22:02.315Z,1014.76
2022-08-10T00:23:02.209Z,1014.84
2022-08-10T00:24:02.844Z,1014.79
2022-08-10T00:25:02.500Z,1014.76
2022-08-10T00:26:02.409Z,1014.82
2022-08-10T00:27:52.401Z,1014.82
2022-08-10T00:28:04.249Z,1014.78
2022-08-10T00:29:03.195Z,1014.79
2022-08-10T00:30:03.457Z,1014.75
2022-08-10T00:31:03.418Z,1014.71
2022-08-10T00:32:02.403Z,1014.72
2022-08-10T00:33:02.318Z,1014.73
2022-08-10T00:34:02.845Z,1014.73
2022-08-10T00:35:02.533Z,1014.72
2022-08-10T00:36:02.429Z,1014.74
2022-08-10T00:37:03.133Z,1014.67
2022-08-10T00:38:03.039Z,1014.66
2022-08-10T00:39:02.973Z,1014.63
2022-08-10T00:40:02.872Z,1014.67
2022-08-10T00:41:03.434Z,1014.63
2022-08-10T00:42:07.623Z,1014.71
2022-08-10T00:43:03.246Z,1014.64
2022-08-10T00:44:03.584Z,1014.68
2022-08-10T00:45:03.332Z,1014.64
2022-08-10T00:46:03.234Z,1014.64
2022-08-10T00:47:02.888Z,1014.61
2022-08-10T00:48:03.035Z,1014.62
2022-08-10T00:49:03.318Z,1014.59
2022-08-10T00:50:03.147Z,1014.68
2022-08-10T00:51:03.027Z,1014.63
2022-08-10T00:52:02.990Z,1014.58
2022-08-10T00:53:03.015Z,1014.59
2022-08-10T00:54:03.025Z,1014.64
2022-08-10T00:55:03.025Z,1014.57
2022-08-10T00:56:35.828Z,1014.64
2022-08-10T00:57:15.988Z,1014.62
2022-08-10T00:58:03.778Z,1014.60
2022-08-10T00:59:03.396Z,1014.64
2022-08-10T01:00:03.307Z,1014.63
2022-08-10T01:01:03.329Z,1014.61
2022-08-10T01:02:08.883Z,1014.64
2022-08-10T01:03:02.907Z,1014.61
2022-08-10T01:04:39.692Z,1014.58
2022-08-10T01:05:03.148Z,1014.60
2022-08-10T01:06:03.172Z,1014.60
2022-08-10T01:07:03.090Z,1014.57
2022-08-10T01:08:02.999Z,1014.54
2022-08-10T01:09:02.892Z,1014.58
2022-08-10T01:10:03.340Z,1014.57
2022-08-10T01:11:03.219Z,1014.51
2022-08-10T01:12:37.407Z,1014.57
2022-08-10T01:13:02.677Z,1014.56
2022-08-10T01:14:02.551Z,1014.58
2022-08-10T01:15:03.118Z,1014.56
2022-08-10T01:16:02.679Z,1014.54
2022-08-10T01:17:03.282Z,1014.58
2022-08-10T01:18:02.965Z,1014.51
2022-08-10T01:19:03.539Z,1014.55
2022-08-10T01:20:03.412Z,1014.55
2022-08-10T01:21:03.316Z,1014.52
2022-08-10T01:22:02.631Z,1014.54
2022-08-10T01:23:02.546Z,1014.54
2022-08-10T01:24:02.713Z,1014.56
2022-08-10T01:25:02.741Z,1014.53
2022-08-10T01:26:11.779Z,1014.54
2022-08-10T01:27:02.986Z,1014.54
2022-08-10T01:28:03.175Z,1014.56
2022-08-10T01:29:02.940Z,1014.54
2022-08-10T01:30:03.482Z,1014.55
2022-08-10T01:31:03.117Z,1014.55
2022-08-10T01:32:02.728Z,1014.56
2022-08-10T01:33:03.171Z,1014.63
2022-08-10T01:34:02.945Z,1014.51
2022-08-10T01:35:02.663Z,1014.55
2022-08-10T01:36:02.545Z,1014.49
2022-08-10T01:37:03.116Z,1014.49
2022-08-10T01:38:03.216Z,1014.50
2022-08-10T01:39:03.610Z,1014.43
2022-08-10T01:40:02.854Z,1014.47
2022-08-10T01:41:02.925Z,1014.44
2022-08-10T01:42:03.634Z,1014.46
2022-08-10T01:43:08.486Z,1014.53
2022-08-10T01:44:03.901Z,1014.54
2022-08-10T01:45:03.576Z,1014.55
2022-08-10T01:46:03.456Z,1014.56
2022-08-10T01:47:03.212Z,1014.57
2022-08-10T01:48:03.027Z,1014.55
2022-08-10T01:49:02.969Z,1014.54
2022-08-10T01:50:02.919Z,1014.57
2022-08-10T01:51:02.887Z,1014.56
2022-08-10T01:52:03.555Z,1014.54
2022-08-10T01:53:03.337Z,1014.54
2022-08-10T01:54:03.185Z,1014.57
2022-08-10T01:55:03.103Z,1014.55
2022-08-10T01:56:03.073Z,1014.55
2022-08-10T01:57:03.776Z,1014.55
2022-08-10T01:58:03.411Z,1014.56
2022-08-10T01:59:03.218Z,1014.51
2022-08-10T02:00:03.561Z,1014.55
2022-08-10T02:01:03.818Z,1014.48
2022-08-10T02:02:02.085Z,1014.50
2022-08-10T02:03:02.007Z,1014.51
2022-08-10T02:04:05.740Z,1014.58
2022-08-10T02:05:01.743Z,1014.57
2022-08-10T02:06:02.312Z,1014.57
2022-08-10T02:07:02.610Z,1014.56
2022-08-10T02:08:02.539Z,1014.58
2022-08-10T02:09:06.606Z,1014.59
2022-08-10T02:10:02.344Z,1014.65
2022-08-10T02:11:02.215Z,1014.70
2022-08-10T02:12:07.519Z,1014.71
2022-08-10T02:13:02.663Z,1014.68
2022-08-10T02:14:02.612Z,1014.70
2022-08-10T02:15:02.568Z,1014.68
2022-08-10T02:16:02.626Z,1014.72
2022-08-10T02:17:02.218Z,1014.65
2022-08-10T02:18:02.333Z,1014.71
2022-08-10T02:19:01.792Z,1014.63
2022-08-10T02:20:01.688Z,1014.68
2022-08-10T02:21:02.260Z,1014.66
2022-08-10T02:22:35.797Z,1014.70
2022-08-10T02:23:02.248Z,1014.67
2022-08-10T02:24:02.257Z,1014.70
2022-08-10T02:25:02.156Z,1014.71
2022-08-10T02:26:02.143Z,1014.75
2022-08-10T02:27:02.060Z,1014.71
2022-08-10T02:28:02.384Z,1014.78
2022-08-10T02:29:02.294Z,1014.69
2022-08-10T02:30:02.141Z,1014.74
2022-08-10T02:31:02.655Z,1014.71
2022-08-10T02:32:02.283Z,1014.67
2022-08-10T02:33:02.513Z,1014.73
2022-08-10T02:34:02.861Z,1014.76
2022-08-10T02:35:03.019Z,1014.75
2022-08-10T02:36:02.801Z,1014.73
2022-08-10T02:37:01.777Z,1014.71
2022-08-10T02:38:01.711Z,1014.69
2022-08-10T02:39:01.705Z,1014.72
2022-08-10T02:40:02.322Z,1014.68
2022-08-10T02:45:02.061Z,1014.69
2022-08-10T02:45:14.467Z,1014.74
2022-08-10T02:45:20.365Z,1014.70
2022-08-10T02:45:21.099Z,1014.68
2022-08-10T02:45:21.567Z,1014.75
2022-08-10T02:46:02.500Z,1014.73
2022-08-10T02:47:02.402Z,1014.75
2022-08-10T02:48:03.108Z,1014.79
2022-08-10T02:49:02.742Z,1014.77
2022-08-10T02:50:02.695Z,1014.77
2022-08-10T02:51:02.473Z,1014.77
2022-08-10T02:52:06.465Z,1014.75
2022-08-10T02:53:02.395Z,1014.73
2022-08-10T02:54:02.237Z,1014.80
2022-08-10T02:55:06.136Z,1014.80
2022-08-10T02:56:02.239Z,1014.73
2022-08-10T02:57:02.230Z,1014.75
2022-08-10T02:58:16.593Z,1014.76
2022-08-10T02:59:02.069Z,1014.75
2022-08-10T03:00:02.858Z,1014.79
2022-08-10T03:01:02.684Z,1014.71
2022-08-10T03:02:02.342Z,1014.67
2022-08-10T03:03:02.221Z,1014.76
2022-08-10T03:04:02.789Z,1014.75
2022-08-10T03:05:02.689Z,1014.72
2022-08-10T03:06:02.658Z,1014.71
2022-08-10T03:07:02.615Z,1014.73
2022-08-10T03:08:02.518Z,1014.75
2022-08-10T03:09:03.113Z,1014.76
2022-08-10T03:10:02.758Z,1014.75
2022-08-10T03:11:02.572Z,1014.75
2022-08-10T03:12:34.793Z,1014.72
2022-08-10T03:13:02.129Z,1014.76
2022-08-10T03:14:02.691Z,1014.74
2022-08-10T03:15:02.306Z,1014.76
2022-08-10T03:16:02.183Z,1014.73
2022-08-10T03:17:02.815Z,1014.75
2022-08-10T03:18:02.720Z,1014.73
2022-08-10T03:19:02.772Z,1014.75
2022-08-10T03:20:34.753Z,1014.73
2022-08-10T03:21:03.261Z,1014.72
2022-08-10T03:22:01.952Z,1014.66
2022-08-10T03:23:01.826Z,1014.69
2022-08-10T03:24:02.257Z,1014.69
2022-08-10T03:25:02.243Z,1014.74
2022-08-10T03:26:01.928Z,1014.72
2022-08-10T03:27:02.296Z,1014.70
2022-08-10T03:28:02.619Z,1014.78
2022-08-10T03:29:02.548Z,1014.74
2022-08-10T03:30:28.563Z,1014.73
2022-08-10T03:31:02.414Z,1014.70
2022-08-10T03:32:02.047Z,1014.74
2022-08-10T03:33:01.939Z,1014.68
2022-08-10T03:34:01.845Z,1014.68
2022-08-10T03:35:02.461Z,1014.68
2022-08-10T03:36:42.054Z,1014.70
2022-08-10T03:37:02.402Z,1014.68
2022-08-10T03:38:02.379Z,1014.69
2022-08-10T03:39:02.386Z,1014.67
2022-08-10T03:40:02.397Z,1014.68
2022-08-10T03:41:02.312Z,1014.70
2022-08-10T03:42:02.983Z,1014.72
2022-08-10T03:43:03.085Z,1014.64
2022-08-10T03:44:03.452Z,1014.70
2022-08-10T03:45:03.201Z,1014.63
2022-08-10T03:46:03.131Z,1014.69
2022-08-10T03:47:02.179Z,1014.63
2022-08-10T03:48:01.921Z,1014.69
2022-08-10T03:49:02.127Z,1014.62
2022-08-10T03:50:03.568Z,1014.71
2022-08-10T03:51:01.902Z,1014.69
2022-08-10T03:52:02.647Z,1014.72
2022-08-10T03:53:02.634Z,1014.72
2022-08-10T03:54:06.993Z,1014.68
2022-08-10T03:55:02.581Z,1014.72
2022-08-10T03:56:28.673Z,1014.64
2022-08-10T03:57:02.583Z,1014.61
2022-08-10T03:58:02.516Z,1014.68
2022-08-10T03:59:02.455Z,1014.68
2022-08-10T04:00:02.439Z,1014.67
2022-08-10T04:01:02.780Z,1014.73
2022-08-10T04:02:43.270Z,1014.72
2022-08-10T04:03:02.466Z,1014.77
2022-08-10T04:04:11.748Z,1014.79
2022-08-10T04:05:02.484Z,1014.75
2022-08-10T04:06:02.482Z,1014.74
2022-08-10T04:07:03.263Z,1014.75
2022-08-10T04:08:03.147Z,1014.73
2022-08-10T04:09:03.225Z,1014.68
2022-08-10T04:10:03.070Z,1014.72
2022-08-10T04:11:03.145Z,1014.69
2022-08-10T04:12:02.845Z,1014.71
2022-08-10T04:13:03.039Z,1014.74
2022-08-10T04:14:02.873Z,1014.70
2022-08-10T04:15:02.847Z,1014.71
2022-08-10T04:16:02.800Z,1014.69
2022-08-10T04:17:03.551Z,1014.66
2022-08-10T04:18:06.378Z,1014.71
2022-08-10T04:19:03.362Z,1014.73
2022-08-10T04:20:03.331Z,1014.74
2022-08-10T04:21:03.312Z,1014.72
2022-08-10T04:22:03.094Z,1014.70
2022-08-10T04:23:03.134Z,1014.73
2022-08-10T04:24:03.178Z,1014.77
2022-08-10T04:25:02.665Z,1014.72
2022-08-10T04:26:02.672Z,1014.71
2022-08-10T04:27:03.398Z,1014.74
2022-08-10T04:28:03.563Z,1014.75
2022-08-10T04:29:03.318Z,1014.75
2022-08-10T04:30:03.375Z,1014.74
2022-08-10T04:31:03.386Z,1014.75
2022-08-10T04:32:03.433Z,1014.80
2022-08-10T04:33:03.654Z,1014.80
2022-08-10T04:34:08.434Z,1014.78
2022-08-10T04:35:03.459Z,1014.78
2022-08-10T04:36:03.625Z,1014.81
2022-08-10T04:37:08.153Z,1014.74
2022-08-10T04:38:02.829Z,1014.81
2022-08-10T04:39:02.897Z,1014.74
2022-08-10T04:40:02.901Z,1014.79
2022-08-10T04:41:02.712Z,1014.77
2022-08-10T04:42:03.327Z,1014.76
2022-08-10T04:43:09.000Z,1014.76
2022-08-10T04:44:03.253Z,1014.78
2022-08-10T04:45:03.317Z,1014.74
2022-08-10T04:46:03.323Z,1014.74
2022-08-10T04:47:03.058Z,1014.73
2022-08-10T04:48:03.608Z,1014.78
2022-08-10T04:49:02.702Z,1014.72
2022-08-10T04:50:02.710Z,1014.77
2022-08-10T04:51:02.760Z,1014.83
2022-08-10T04:52:03.550Z,1014.77
2022-08-10T04:53:03.699Z,1014.73
2022-08-10T04:54:08.229Z,1014.68
2022-08-10T04:55:03.365Z,1014.69
2022-08-10T04:56:03.311Z,1014.75
2022-08-10T04:57:03.074Z,1014.80
2022-08-10T04:58:02.972Z,1014.77
2022-08-10T04:59:02.962Z,1014.72
2022-08-10T05:00:03.041Z,1014.73
2022-08-10T05:01:02.752Z,1014.70
2022-08-10T05:02:27.908Z,1014.74
2022-08-10T05:03:03.421Z,1014.74
2022-08-10T05:04:36.849Z,1014.71
2022-08-10T05:05:02.968Z,1014.75
2022-08-10T05:06:03.035Z,1014.74
2022-08-10T05:07:03.141Z,1014.74
2022-08-10T05:08:03.327Z,1014.78
2022-08-10T05:09:03.272Z,1014.75
2022-08-10T05:10:07.399Z,1014.78
2022-08-10T05:11:03.596Z,1014.76
2022-08-10T05:12:02.636Z,1014.79
2022-08-10T05:13:02.728Z,1014.82
2022-08-10T05:14:02.810Z,1014.79
2022-08-10T05:15:02.876Z,1014.78
2022-08-10T05:16:03.178Z,1014.78
2022-08-10T05:17:03.189Z,1014.74
2022-08-10T05:18:08.616Z,1014.79
2022-08-10T05:19:03.265Z,1014.77
2022-08-10T05:20:06.811Z,1014.76
2022-08-10T05:21:03.476Z,1014.76
2022-08-10T05:22:04.836Z,1014.75
2022-08-10T05:23:02.694Z,1014.81
2022-08-10T05:24:02.901Z,1014.78
2022-08-10T05:25:03.052Z,1014.78
2022-08-10T05:26:03.010Z,1014.81
2022-08-10T05:27:10.000Z,1014.79
2022-08-10T05:28:06.497Z,1014.79
2022-08-10T05:29:03.085Z,1014.79
2022-08-10T05:30:03.796Z,1014.79
2022-08-10T05:31:03.436Z,1014.82
2022-08-10T05:32:02.521Z,1014.88
2022-08-10T05:33:06.498Z,1014.83
2022-08-10T05:34:03.026Z,1014.87
2022-08-10T05:35:02.596Z,1014.89
2022-08-10T05:36:02.896Z,1014.82
2022-08-10T05:37:03.035Z,1014.83
2022-08-10T05:38:09.384Z,1014.86
2022-08-10T05:39:03.389Z,1014.88
2022-08-10T05:40:03.507Z,1014.88
2022-08-10T05:41:03.207Z,1014.87
2022-08-10T05:42:03.212Z,1014.91
2022-08-10T05:43:03.229Z,1014.89
2022-08-10T05:44:03.260Z,1014.94
2022-08-10T05:45:03.386Z,1014.93
2022-08-10T05:46:19.568Z,1014.88
2022-08-10T05:47:03.329Z,1014.89
2022-08-10T05:48:57.923Z,1014.94
2022-08-10T05:49:03.529Z,1014.95
2022-08-10T05:50:03.345Z,1014.97
2022-08-10T05:51:03.379Z,1014.94
2022-08-10T05:52:03.508Z,1014.94
2022-08-10T05:53:59.887Z,1014.93
2022-08-10T05:54:06.631Z,1014.93
2022-08-10T05:55:03.883Z,1014.91
2022-08-10T05:56:03.926Z,1014.96
2022-08-10T05:57:02.844Z,1014.96
2022-08-10T05:58:03.173Z,1014.96
2022-08-10T05:59:03.255Z,1014.93
2022-08-10T06:00:11.369Z,1014.98
2022-08-10T06:01:03.231Z,1014.97
2022-08-10T06:02:31.873Z,1014.94
2022-08-10T06:03:03.064Z,1014.96
2022-08-10T06:04:03.080Z,1014.89
2022-08-10T06:05:03.205Z,1014.94
2022-08-10T06:06:03.318Z,1014.92
2022-08-10T06:07:02.530Z,1014.91
2022-08-10T06:08:02.852Z,1014.89
2022-08-10T06:09:02.617Z,1014.89
2022-08-10T06:10:02.685Z,1014.91
2022-08-10T06:12:26.936Z,1014.87
2022-08-10T06:12:27.317Z,1014.90
2022-08-10T06:13:03.302Z,1014.83
2022-08-10T06:14:15.781Z,1014.88
2022-08-10T06:15:05.621Z,1014.81
2022-08-10T06:16:02.877Z,1014.84
2022-08-10T06:17:02.904Z,1014.86
2022-08-10T06:18:03.098Z,1014.83
2022-08-10T06:19:03.043Z,1014.87
2022-08-10T06:20:03.108Z,1014.82
2022-08-10T06:21:03.131Z,1014.79
2022-08-10T06:22:03.342Z,1014.79
2022-08-10T06:23:03.392Z,1014.79
2022-08-10T06:24:03.591Z,1014.82
2022-08-10T06:26:10.019Z,1014.85
2022-08-10T06:27:02.761Z,1014.84
2022-08-10T06:28:02.776Z,1014.84
2022-08-10T06:29:04.156Z,1014.84
2022-08-10T06:30:02.685Z,1014.86
2022-08-10T06:31:02.869Z,1014.86
2022-08-10T06:32:03.006Z,1014.84
2022-08-10T06:33:03.139Z,1014.88
2022-08-10T06:34:03.196Z,1014.92
2022-08-10T06:35:03.301Z,1014.78
2022-08-10T06:36:03.183Z,1014.78
2022-08-10T06:37:03.319Z,1014.87
2022-08-10T06:38:03.376Z,1014.82
2022-08-10T06:39:29.970Z,1014.85
2022-08-10T06:40:03.540Z,1014.86
2022-08-10T06:41:03.406Z,1014.82
2022-08-10T06:42:15.892Z,1014.78
2022-08-10T06:43:03.494Z,1014.82
2022-08-10T06:44:03.892Z,1014.81
2022-08-10T06:45:03.743Z,1014.82
2022-08-10T06:46:07.288Z,1014.80
2022-08-10T06:47:02.868Z,1014.82
2022-08-10T06:48:02.941Z,1014.76
2022-08-10T06:49:02.974Z,1014.83
2022-08-10T06:50:04.884Z,1014.86
2022-08-10T06:51:03.304Z,1014.89
2022-08-10T06:52:03.345Z,1014.93
2022-08-10T06:53:03.661Z,1014.94
2022-08-10T06:54:03.558Z,1014.89
2022-08-10T06:55:05.057Z,1014.82
2022-08-10T06:56:03.255Z,1014.83
2022-08-10T06:57:17.657Z,1014.82
2022-08-10T06:58:03.177Z,1014.81
2022-08-10T06:59:03.200Z,1014.85
2022-08-10T07:00:03.275Z,1014.84
2022-08-10T07:01:02.737Z,1014.79
2022-08-10T07:02:02.534Z,1014.78
2022-08-10T07:03:02.630Z,1014.82
2022-08-10T07:04:02.266Z,1014.85
2022-08-10T07:05:02.657Z,1014.82
2022-08-10T07:06:02.645Z,1014.81
2022-08-10T07:07:02.907Z,1014.81
2022-08-10T07:08:02.908Z,1014.88
2022-08-10T07:09:02.977Z,1014.89
2022-08-10T07:10:03.115Z,1014.85
2022-08-10T07:11:02.994Z,1014.88
2022-08-10T07:12:08.319Z,1014.88
2022-08-10T07:13:02.659Z,1014.87
2022-08-10T07:14:17.512Z,1014.81
2022-08-10T07:15:03.170Z,1014.86
2022-08-10T07:16:02.641Z,1014.84
2022-08-10T07:17:03.226Z,1014.85
2022-08-10T07:18:03.114Z,1014.86
2022-08-10T07:19:03.278Z,1014.86
2022-08-10T07:20:04.347Z,1014.86
2022-08-10T07:21:03.519Z,1014.86
2022-08-10T07:22:02.282Z,1014.83
2022-08-10T07:23:56.234Z,1014.81
2022-08-10T07:24:03.240Z,1014.80
2022-08-10T07:25:02.682Z,1014.83
2022-08-10T07:26:02.834Z,1014.84
2022-08-10T07:27:03.012Z,1014.83
2022-08-10T07:28:02.972Z,1014.80
2022-08-10T07:29:02.613Z,1014.83
2022-08-10T07:30:02.701Z,1014.82
2022-08-10T07:31:02.987Z,1014.80
2022-08-10T07:32:03.634Z,1014.79
2022-08-10T07:33:03.307Z,1014.80
2022-08-10T07:34:03.472Z,1014.83
2022-08-10T07:35:03.307Z,1014.84
2022-08-10T07:36:03.127Z,1014.76
2022-08-10T07:37:02.937Z,1014.79
2022-08-10T07:38:02.748Z,1014.82
2022-08-10T07:39:02.802Z,1014.83
2022-08-10T07:40:04.873Z,1014.86
2022-08-10T07:41:02.355Z,1014.84
2022-08-10T07:42:02.991Z,1014.85
2022-08-10T07:43:02.468Z,1014.79
2022-08-10T07:44:02.847Z,1014.78
2022-08-10T07:45:02.976Z,1014.75
2022-08-10T07:46:03.030Z,1014.72
2022-08-10T07:47:02.846Z,1014.76
2022-08-10T07:48:07.459Z,1014.75
2022-08-10T07:49:03.188Z,1014.79
2022-08-10T07:50:03.381Z,1014.76
2022-08-10T07:51:03.398Z,1014.67
2022-08-10T07:52:02.968Z,1014.64
2022-08-10T07:53:02.867Z,1014.71
2022-08-10T07:54:02.497Z,1014.71
2022-08-10T07:55:02.726Z,1014.71
2022-08-10T07:56:13.226Z,1014.71
2022-08-10T07:57:03.599Z,1014.76
2022-08-10T07:58:03.606Z,1014.73
2022-08-10T07:59:03.466Z,1014.70
2022-08-10T08:00:04.472Z,1014.73
2022-08-10T08:01:03.525Z,1014.74
2022-08-10T08:02:03.645Z,1014.74
2022-08-10T08:03:03.557Z,1014.78
2022-08-10T08:04:10.802Z,1014.79
2022-08-10T08:05:03.694Z,1014.79
2022-08-10T08:06:11.450Z,1014.80
2022-08-10T08:07:02.592Z,1014.84
2022-08-10T08:08:02.662Z,1014.77
2022-08-10T08:09:02.798Z,1014.84
2022-08-10T08:10:02.732Z,1014.84
2022-08-10T08:11:02.729Z,1014.86
2022-08-10T08:12:02.723Z,1014.89
2022-08-10T08:13:02.893Z,1014.85
2022-08-10T08:14:03.307Z,1014.81
2022-08-10T08:16:17.054Z,1014.87
2022-08-10T08:16:18.013Z,1014.89
2022-08-10T08:17:03.031Z,1014.83
2022-08-10T08:18:03.547Z,1014.83
2022-08-10T08:19:27.975Z,1014.84
2022-08-10T08:20:03.096Z,1014.87
2022-08-10T08:21:03.296Z,1014.89
2022-08-10T08:24:11.137Z,1014.89
2022-08-10T08:24:14.653Z,1014.92
2022-08-10T08:24:31.076Z,1014.92
2022-08-10T08:25:02.613Z,1014.95
2022-08-10T08:26:03.031Z,1014.92
2022-08-10T08:27:02.827Z,1014.91
2022-08-10T08:28:02.888Z,1014.90
2022-08-10T08:29:05.020Z,1014.93
2022-08-10T08:30:03.098Z,1014.93
2022-08-10T08:31:03.235Z,1014.90
2022-08-10T08:32:03.984Z,1014.88
2022-08-10T08:33:03.953Z,1014.86
2022-08-10T08:34:03.692Z,1014.85
2022-08-10T08:35:03.437Z,1014.92
2022-08-10T08:36:03.366Z,1014.87
2022-08-10T08:37:03.440Z,1014.84
2022-08-10T08:38:29.302Z,1014.84
2022-08-10T08:39:03.421Z,1014.83
2022-08-10T08:40:03.984Z,1014.85
2022-08-10T08:41:03.999Z,1014.82
2022-08-10T08:42:03.150Z,1014.85
2022-08-10T08:43:03.194Z,1014.85
2022-08-10T08:44:03.661Z,1014.87
2022-08-10T08:45:03.428Z,1014.86
2022-08-10T08:46:03.558Z,1014.79
2022-08-10T08:47:03.403Z,1014.78
2022-08-10T08:48:06.334Z,1014.78
2022-08-10T08:49:03.903Z,1014.75
2022-08-10T08:50:07.635Z,1014.77
2022-08-10T08:51:03.785Z,1014.75
2022-08-10T08:52:07.063Z,1014.72
2022-08-10T08:53:02.976Z,1014.67
2022-08-10T08:54:04.110Z,1014.67
2022-08-10T08:55:03.368Z,1014.64
2022-08-10T08:56:06.953Z,1014.68
2022-08-10T08:57:03.238Z,1014.68
2022-08-10T08:58:03.391Z,1014.68
2022-08-10T08:59:03.371Z,1014.65
2022-08-10T09:00:03.320Z,1014.62
2022-08-10T09:01:03.550Z,1014.67
2022-08-10T09:02:02.523Z,1014.58
2022-08-10T09:03:02.620Z,1014.57
2022-08-10T09:04:02.750Z,1014.57
2022-08-10T09:05:02.902Z,1014.54
2022-08-10T09:06:02.827Z,1014.53
2022-08-10T09:07:03.125Z,1014.49
2022-08-10T09:08:03.426Z,1014.47
2022-08-10T09:09:03.478Z,1014.49
2022-08-10T09:10:03.492Z,1014.45
2022-08-10T09:11:03.314Z,1014.45
2022-08-10T09:12:02.722Z,1014.43
2022-08-10T09:13:02.714Z,1014.41
2022-08-10T09:14:02.679Z,1014.41
2022-08-10T09:15:02.563Z,1014.41
2022-08-10T09:16:02.691Z,1014.34
2022-08-10T09:17:03.359Z,1014.36
2022-08-10T09:18:03.500Z,1014.40
2022-08-10T09:19:03.580Z,1014.42
2022-08-10T09:20:03.695Z,1014.40
2022-08-10T09:21:03.145Z,1014.40
2022-08-10T09:22:13.196Z,1014.34
2022-08-10T09:23:02.866Z,1014.28
2022-08-10T09:24:05.773Z,1014.33
2022-08-10T09:25:03.346Z,1014.30
2022-08-10T09:26:03.225Z,1014.35
2022-08-10T09:27:03.309Z,1014.31
2022-08-10T09:28:03.444Z,1014.32
2022-08-10T09:29:13.273Z,1014.30
2022-08-10T09:30:03.479Z,1014.32
2022-08-10T09:31:21.360Z,1014.32
2022-08-10T09:33:07.671Z,1014.26
2022-08-10T09:36:20.092Z,1014.27
2022-08-10T09:36:20.305Z,1014.28
2022-08-10T09:36:22.103Z,1014.15
2022-08-10T09:36:26.579Z,1014.28
2022-08-10T09:37:02.858Z,1014.19
2022-08-10T09:38:03.332Z,1014.22
2022-08-10T09:39:02.975Z,1014.14
2022-08-10T09:40:56.715Z,1014.11
2022-08-10T09:41:06.331Z,1014.16
2022-08-10T09:42:03.356Z,1014.16
2022-08-10T09:43:25.599Z,1014.09
2022-08-10T09:44:03.454Z,1014.14
2022-08-10T09:45:03.608Z,1014.14
2022-08-10T09:46:03.420Z,1014.11
2022-08-10T09:47:03.449Z,1014.15
2022-08-10T09:48:03.565Z,1014.17
2022-08-10T09:49:03.570Z,1014.19
2022-08-10T09:50:04.915Z,1014.11
2022-08-10T09:52:03.498Z,1014.12
2022-08-10T09:53:03.516Z,1014.11
2022-08-10T09:54:03.700Z,1014.10
2022-08-10T09:55:03.425Z,1014.12
2022-08-10T09:56:17.633Z,1014.09
2022-08-10T09:57:43.515Z,1014.06
2022-08-10T09:58:03.908Z,1014.07
2022-08-10T09:59:59.564Z,1014.02
2022-08-10T10:00:03.525Z,1014.03
2022-08-10T10:01:04.031Z,1014.02
2022-08-10T10:02:04.471Z,1014.02
2022-08-10T10:03:02.749Z,1013.96
2022-08-10T10:04:02.638Z,1013.88
2022-08-10T10:05:02.870Z,1013.87
2022-08-10T10:06:02.997Z,1013.93
2022-08-10T10:07:03.204Z,1013.96
2022-08-10T10:08:03.360Z,1013.93
2022-08-10T10:09:10.517Z,1013.90
2022-08-10T10:10:02.992Z,1013.90
2022-08-10T10:11:03.319Z,1013.91
2022-08-10T10:12:05.258Z,1013.94
2022-08-10T10:13:03.481Z,1013.86
2022-08-10T10:14:06.424Z,1013.95
2022-08-10T10:15:02.968Z,1013.83
2022-08-10T10:16:03.115Z,1013.90
2022-08-10T10:17:02.943Z,1013.87
2022-08-10T10:18:03.042Z,1013.83
2022-08-10T10:19:02.565Z,1013.83
2022-08-10T10:20:02.714Z,1013.87
2022-08-10T10:21:02.654Z,1013.77
2022-08-10T10:22:03.178Z,1013.76
2022-08-10T10:23:02.805Z,1013.71
2022-08-10T10:24:21.127Z,1013.70
2022-08-10T10:25:21.079Z,1013.65
2022-08-10T10:26:08.461Z,1013.73
2022-08-10T10:27:03.551Z,1013.69
2022-08-10T10:28:03.211Z,1013.73
2022-08-10T10:30:03.268Z,1013.75
2022-08-10T10:31:03.439Z,1013.66
2022-08-10T10:32:03.571Z,1013.69
2022-08-10T10:33:03.749Z,1013.67
2022-08-10T10:34:03.322Z,1013.66
2022-08-10T10:35:03.150Z,1013.68
2022-08-10T10:36:03.390Z,1013.61
2022-08-10T10:37:04.102Z,1013.57
2022-08-10T10:38:04.291Z,1013.60
2022-08-10T10:39:04.097Z,1013.62
2022-08-10T10:40:04.018Z,1013.60
2022-08-10T10:41:04.069Z,1013.61
2022-08-10T10:42:04.984Z,1013.59
2022-08-10T10:43:03.896Z,1013.57
2022-08-10T10:44:03.408Z,1013.57
2022-08-10T10:45:03.778Z,1013.59
2022-08-10T10:46:03.837Z,1013.52
2022-08-10T10:47:03.578Z,1013.46
2022-08-10T10:48:03.052Z,1013.45
2022-08-10T10:49:03.346Z,1013.40
2022-08-10T10:50:03.402Z,1013.43
2022-08-10T10:51:07.157Z,1013.38
2022-08-10T10:52:04.305Z,1013.38
2022-08-10T10:53:04.555Z,1013.44
2022-08-10T10:54:04.060Z,1013.47
2022-08-10T10:55:03.780Z,1013.47
2022-08-10T10:56:15.516Z,1013.40
2022-08-10T10:57:03.628Z,1013.44
2022-08-10T10:58:03.568Z,1013.41
2022-08-10T10:59:53.371Z,1013.41
2022-08-10T11:00:03.548Z,1013.35
2022-08-10T11:01:03.089Z,1013.34
2022-08-10T11:02:02.526Z,1013.35
2022-08-10T11:03:02.682Z,1013.37
2022-08-10T11:04:02.761Z,1013.33
2022-08-10T11:05:02.755Z,1013.31
2022-08-10T11:06:02.827Z,1013.29
2022-08-10T11:07:03.010Z,1013.24
2022-08-10T11:08:03.133Z,1013.27
2022-08-10T11:09:03.257Z,1013.35
2022-08-10T11:10:19.770Z,1013.34
2022-08-10T11:11:03.319Z,1013.32
2022-08-10T11:12:04.847Z,1013.32
2022-08-10T11:14:23.244Z,1013.31
2022-08-10T11:14:25.316Z,1013.31
2022-08-10T11:15:03.643Z,1013.31
2022-08-10T11:16:03.933Z,1013.29
2022-08-10T11:17:03.958Z,1013.25
2022-08-10T11:18:03.110Z,1013.22
2022-08-10T11:19:03.199Z,1013.20
2022-08-10T11:20:04.179Z,1013.21
2022-08-10T11:21:03.155Z,1013.20
2022-08-10T11:22:03.263Z,1013.15
2022-08-10T11:23:03.903Z,1013.10
2022-08-10T11:24:48.583Z,1013.09
2022-08-10T11:25:04.149Z,1013.18
2022-08-10T11:26:03.929Z,1013.17
2022-08-10T11:27:03.971Z,1013.13
2022-08-10T11:28:03.828Z,1013.12
2022-08-10T11:29:03.710Z,1013.08
2022-08-10T11:30:03.182Z,1013.09
2022-08-10T11:31:03.341Z,1013.12
2022-08-10T11:32:03.495Z,1013.10
2022-08-10T11:33:03.179Z,1013.06
2022-08-10T11:34:47.453Z,1013.09
2022-08-10T11:35:11.626Z,1013.09
2022-08-10T11:36:03.195Z,1013.06
2022-08-10T11:37:03.414Z,1013.03
2022-08-10T11:38:29.620Z,1013.06
2022-08-10T11:39:18.729Z,1013.09
2022-08-10T11:40:03.762Z,1013.06
2022-08-10T11:41:12.836Z,1013.07
2022-08-10T11:42:11.509Z,1013.06
2022-08-10T11:43:03.391Z,1012.95
2022-08-10T11:44:03.530Z,1013.03
2022-08-10T11:45:03.614Z,1012.95
2022-08-10T11:46:07.860Z,1012.93
2022-08-10T11:47:03.886Z,1012.94
2022-08-10T11:48:03.986Z,1012.98
2022-08-10T11:49:04.203Z,1012.97
2022-08-10T11:50:04.157Z,1013.03
2022-08-10T11:51:04.115Z,1013.02
2022-08-10T11:52:03.563Z,1012.99
2022-08-10T11:53:03.523Z,1012.94
2022-08-10T11:54:03.284Z,1012.95
2022-08-10T11:55:03.388Z,1012.96
2022-08-10T11:56:04.604Z,1012.94
2022-08-10T11:57:03.594Z,1012.89
2022-08-10T11:58:04.184Z,1012.88
2022-08-10T11:59:16.431Z,1012.84
2022-08-10T12:00:04.141Z,1012.81
2022-08-10T12:01:03.767Z,1012.84
2022-08-10T12:02:04.255Z,1012.84
2022-08-10T12:03:02.403Z,1012.83
2022-08-10T12:04:02.511Z,1012.86
2022-08-10T12:05:02.775Z,1012.87
2022-08-10T12:06:02.998Z,1012.86
2022-08-10T12:07:02.533Z,1012.80